Flight Track Log - Related Links

Times and Time Zones

All times are in EDT time to prevent confusion due to time zone crossing. See the AWE1940 flight status page for this flight to view local times or setup timezone preferences in your user account.

Time Position Orientation Groundspeed Altitude Reporting Facility
EDT Latitude Longitude Course Direction KTS MPH feet Rate Location/Type
Sun 10:30:22 PM 35.1933 -80.9533 188° South 158 182 1,600  Level Atlanta Center
Sun 10:31:41 PM 35.1122 -80.9667 188° South 258 297 4,200 2,186 Climbing Atlanta Center
Sun 10:32:42 PM 35.0933 -81.0483 254° West 284 327 6,700 2,242 Climbing Atlanta Center
Sun 10:33:20 PM 35.1111 -81.0883 299° West 270 311 7,900 2,687 Climbing Atlanta Center
Sun 10:33:49 PM 35.1453 -81.1253 319° Northwest 285 328 9,700 2,200 Climbing Atlanta Center
Sun 10:34:20 PM 35.1733 -81.1575 317° Northwest 315 362 10,100 1,253 Climbing Atlanta Center
Sun 10:35:20 PM 35.2508 -81.1675 354° North 289 333 11,600 1,750 Climbing Atlanta Center
Sun 10:36:20 PM 35.3197 -81.0911 42° Northeast 279 321 13,600 1,200 Climbing Atlanta Center
Sun 10:37:20 PM 35.3950 -81.0044 43° Northeast 342 394 14,000 1,050 Climbing Atlanta Center
Sun 10:38:20 PM 35.4919 -80.9678 17° North 368 423 15,700 2,050 Climbing Atlanta Center
Sun 10:39:20 PM 35.5981 -80.9483 North 374 430 18,100 2,450 Climbing Atlanta Center
Sun 10:40:20 PM 35.7058 -80.9264 North 390 449 20,600 2,450 Climbing Atlanta Center
Sun 10:41:20 PM 35.8067 -80.8739 23° Northeast 385 443 23,000 1,200 Climbing Atlanta Center
Sun 10:42:20 PM 35.9075 -80.8161 25° Northeast 393 452 23,000 450 Level Atlanta Center
Sun 10:43:20 PM 36.0183 -80.7500 26° Northeast 400 460 23,900 900 Climbing Atlanta Center
Sun 10:44:20 PM 36.1294 -80.6892 24° Northeast 411 473 24,800 1,250 Climbing Atlanta Center
Sun 10:45:20 PM 36.2511 -80.6453 16° North 437 503 26,400 1,700 Climbing Atlanta Center
Sun 10:46:20 PM 36.3778 -80.6244 North 450 518 28,200 1,800 Climbing Atlanta Center
Sun 10:47:20 PM 36.5025 -80.6089 North 450 518 30,000 1,700 Climbing Atlanta Center
Sun 10:48:20 PM 36.6269 -80.5881 North 445 512 31,600 933 Climbing Atlanta Center
Sun 10:50:33 PM 36.8792 -80.5567 North 435 501 33,000 440 Climbing Washington Center
Sun 10:51:31 PM 36.9992 -80.5358 North 435 501 33,000  Level Washington Center
Sun 10:52:33 PM 37.1186 -80.5200 North 435 501 33,000  Level Washington Center
Sun 10:53:33 PM 37.2425 -80.4994 North 435 501 33,000  Level Washington Center
Sun 10:54:32 PM 37.3644 -80.4811 North 435 501 33,000  Level Washington Center
Sun 10:55:33 PM 37.4967 -80.4608 North 435 501 33,000  Level Washington Center
Sun 10:56:31 PM 37.6142 -80.4422 North 430 495 33,000  Level Washington Center
Sun 10:57:31 PM 37.7358 -80.4236 North 430 495 33,000  Level Washington Center
Sun 10:58:32 PM 37.8556 -80.4025 North 430 495 33,000  Level Washington Center
Sun 10:59:31 PM 37.9689 -80.3858 North 438 504 33,000  Level Washington Center
Sun 11:00:31 PM 38.0908 -80.3647 North 438 504 33,000  Level Washington Center
Sun 11:01:32 PM 38.2167 -80.3464 North 444 511 33,000 -446 Level Washington Center
Sun 11:02:32 PM 38.3336 -80.2931 20° North 444 511 32,100 -850 Descending Washington Center
Sun 11:03:32 PM 38.4483 -80.2339 22° Northeast 444 511 31,300 -555 Descending Washington Center
Sun 11:04:31 PM 38.5803 -80.1706 21° North 449 517 31,000 -150 Descending Washington Center
Sun 11:05:32 PM 38.6969 -80.1139 21° North 449 517 31,000  Level Washington Center
Sun 11:06:31 PM 38.8064 -80.0353 29° Northeast 444 511 31,000  Level Washington Center
Sun 11:10:32 PM 39.2169 -79.6456 36° Northeast 437 503 31,000  Level Cleveland Center
Sun 11:11:32 PM 39.3183 -79.5500 36° Northeast 444 511 31,000  Level Cleveland Center
Sun 11:12:32 PM 39.4194 -79.4519 37° Northeast 449 517 31,000  Level Cleveland Center
Sun 11:13:32 PM 39.5186 -79.3586 36° Northeast 449 517 31,000  Level Cleveland Center
Sun 11:14:32 PM 39.6094 -79.2681 38° Northeast 449 517 31,000  Level Cleveland Center
Sun 11:15:32 PM 39.7125 -79.1744 35° Northeast 449 517 31,000  Level Cleveland Center
Sun 11:16:32 PM 39.8133 -79.0778 36° Northeast 449 517 31,000  Level Cleveland Center
Sun 11:17:32 PM 39.9142 -78.9808 36° Northeast 449 517 31,000  Level Cleveland Center
Sun 11:18:32 PM 40.0147 -78.8808 37° Northeast 449 517 31,000  Level Cleveland Center
Sun 11:19:32 PM 40.1133 -78.7833 37° Northeast 449 517 31,000  Level Cleveland Center
Sun 11:21:05 PM 40.2797 -78.6239 36° Northeast 452 520 31,000  Level New York Center
Sun 11:22:05 PM 40.3733 -78.5308 37° Northeast 459 528 31,000  Level New York Center
Sun 11:23:06 PM 40.4717 -78.4328 37° Northeast 459 528 31,000  Level New York Center
Sun 11:24:05 PM 40.5739 -78.3322 37° Northeast 459 528 31,000  Level New York Center
Sun 11:25:05 PM 40.6739 -78.2336 37° Northeast 459 528 31,000  Level New York Center
Sun 11:26:05 PM 40.7739 -78.1347 37° Northeast 459 528 31,000 -50 Level New York Center
Sun 11:27:06 PM 40.8761 -78.0333 37° Northeast 459 528 30,900 -555 Descending New York Center
Sun 11:28:04 PM 40.9686 -77.9194 43° Northeast 459 528 29,900 -974 Descending New York Center
Sun 11:29:03 PM 41.0531 -77.7961 48° Northeast 451 519 29,000 -450 Descending New York Center
Sun 11:30:04 PM 41.1353 -77.6725 49° Northeast 451 519 29,000  Level New York Center
Sun 11:31:05 PM 41.2308 -77.5358 47° Northeast 451 519 29,000  Level New York Center
Sun 11:32:06 PM 41.3147 -77.4144 47° Northeast 451 519 29,000  Level New York Center
Sun 11:33:04 PM 41.3878 -77.3000 50° Northeast 445 512 29,000  Level New York Center
Sun 11:34:04 PM 41.4714 -77.1778 48° Northeast 450 518 29,000  Level New York Center
Sun 11:35:04 PM 41.5575 -77.0503 48° Northeast 450 518 29,000  Level New York Center
Sun 11:36:05 PM 41.6214 -76.9036 60° Northeast 450 518 29,000  Level New York Center
Sun 11:37:06 PM 41.6842 -76.7314 64° Northeast 457 526 29,000  Level New York Center
Sun 11:38:41 PM 41.7772 -76.4994 62° Northeast 478 550 29,000 -310 Level Boston Center
Sun 11:39:41 PM 41.8328 -76.3469 64° Northeast 466 536 28,200 -900 Descending Boston Center
Sun 11:40:41 PM 41.8878 -76.1969 64° Northeast 452 520 27,200 -950 Descending Boston Center
Sun 11:41:41 PM 41.9469 -76.0439 62° Northeast 446 513 26,300 -950 Descending Boston Center
Sun 11:42:41 PM 41.9994 -75.8989 64° Northeast 440 506 25,300 -950 Descending Boston Center
Sun 11:43:41 PM 42.0542 -75.7481 64° Northeast 440 506 24,400 -650 Descending Boston Center
Sun 11:44:41 PM 42.1106 -75.5969 63° Northeast 440 506 24,000 -200 Descending Boston Center
Sun 11:45:41 PM 42.1647 -75.4458 64° Northeast 440 506 24,000  Level Boston Center
Sun 11:46:41 PM 42.2206 -75.2997 63° Northeast 440 506 24,000 -300 Level Boston Center
Sun 11:47:41 PM 42.2722 -75.1506 65° Northeast 440 506 23,400 -1,550 Descending Boston Center
Sun 11:48:41 PM 42.3211 -75.0150 64° Northeast 417 480 20,900 -2,450 Descending Boston Center
Sun 11:49:41 PM 42.3700 -74.8794 64° Northeast 411 473 18,500 -2,400 Descending Boston Center
Sun 11:50:41 PM 42.4167 -74.7433 65° Northeast 398 458 16,100 -2,621 Descending Boston Center
Sun 11:51:08 PM 42.4453 -74.6686 63° Northeast 388 447 14,700 -2,700 Descending Boston Center
Sun 11:51:41 PM 42.4694 -74.5989 65° Northeast 392 451 13,400 -1,967 Descending Boston Center
Sun 11:52:09 PM 42.4936 -74.5408 61° Northeast 375 432 12,700 -1,100 Descending Boston Center
Sun 11:52:41 PM 42.5214 -74.4967 50° Northeast 369 425 12,300 -1,000 Descending Boston Center
Sun 11:53:09 PM 42.5558 -74.4383 51° Northeast 357 411 11,700 -1,200 Descending Boston Center
Sun 11:53:41 PM 42.5881 -74.3831 52° Northeast 353 406 11,100 -885 Descending Boston Center
Sun 11:54:10 PM 42.6158 -74.3417 48° Northeast 331 381 10,800 -1,000 Descending Boston Center
Sun 11:54:41 PM 42.6372 -74.3028 53° Northeast 322 371 10,100 -1,574 Descending Boston Center
Sun 11:55:11 PM 42.6672 -74.2556 49° Northeast 292 336 9,200 -1,800 Descending Boston Center
Sun 11:55:41 PM 42.6950 -74.2086 51° Northeast 299 344 8,300 -1,700 Descending Boston Center
Sun 11:56:11 PM 42.7208 -74.1697 48° Northeast 290 334 7,500 -1,700 Descending Boston Center
Sun 11:56:41 PM 42.7400 -74.1306 56° Northeast 294 338 6,600 -1,967 Descending Boston Center
Sun 11:57:12 PM 42.7719 -74.0833 47° Northeast 289 333 5,500 -1,500 Descending Boston Center
Sun 11:57:53 PM 42.7911 -74.0500 52° Northeast 294 338 4,800 -1,455 Descending Boston Center
Sun 11:58:18 PM 42.8275 -73.9886 51° Northeast 281 323 3,900 -1,400 Descending Boston Center
Sun 11:58:53 PM 42.8592 -73.9667 27° Northeast 278 320 3,400 -716 Descending Boston Center
Sun 11:59:25 PM 42.8969 -73.9394 28° Northeast 245 282 3,100 -400 Descending Boston Center
Sun 11:59:53 PM 42.9183 -73.9086 47° Northeast 244 281 3,000 -590 Descending Boston Center
Mon 12:00:26 AM 42.9228 -73.8692 81° East 218 251 2,500 -909 Descending Boston Center

Login

Don't have an account? Register now (free) for customized features, flight alerts, and more!